Steenokkerzeel, Belgium
Current Conditions -  °F | °C
As of 4:20 AM on Tuesday 23 Dec 2014 (Local Time) from EBBR Reporting Station
Broken Clouds Broken Clouds  
Wind Chill: 52°   Ceiling: 3000
Heat Index: 52°   Visibility: 6mi
Dew Point: 45°   Wind: 18mph
Humidity: 76%   Direction: 240°WSW
Pressure: 30.12"   Gusts: NA
Location:  50.92°N, 4.51°E
Report Text: EBBR 230320Z 24016KT 9999 BKN030 11/07 Q1020 NOSIG
Loading
Personal Weather Stations






























Interactive Weather Map New forecast layout! Learn more

10-Day Weather Forecast

Advertisements
Track Severe Weather on mobile